sensor_id;sensor_type;location;lat;lon;timestamp;pressure;altitude;pressure_sealevel;temperature;humidity
45467;BME280;31212;49.734;8.490;2022-07-04T00:00:58;100431.56;;;19.66;59.09
45467;BME280;31212;49.734;8.490;2022-07-04T00:03:25;100421.34;;;19.57;59.12
45467;BME280;31212;49.734;8.490;2022-07-04T00:05:51;100416.06;;;19.57;59.08
45467;BME280;31212;49.734;8.490;2022-07-04T00:08:18;100414.41;;;19.54;58.76
45467;BME280;31212;49.734;8.490;2022-07-04T00:10:44;100412.06;;;19.46;59.08
45467;BME280;31212;49.734;8.490;2022-07-04T00:13:11;100411.44;;;19.38;59.14
45467;BME280;31212;49.734;8.490;2022-07-04T00:15:39;100421.88;;;19.41;59.33
45467;BME280;31212;49.734;8.490;2022-07-04T00:18:06;100423.19;;;19.28;59.53
45467;BME280;31212;49.734;8.490;2022-07-04T00:20:32;100427.72;;;19.23;59.51
45467;BME280;31212;49.734;8.490;2022-07-04T00:22:59;100450.31;;;19.30;60.03
45467;BME280;31212;49.734;8.490;2022-07-04T00:25:26;100430.59;;;19.16;59.74
45467;BME280;31212;49.734;8.490;2022-07-04T00:27:52;100442.06;;;19.14;59.75
45467;BME280;31212;49.734;8.490;2022-07-04T00:30:19;100432.63;;;19.07;59.96
45467;BME280;31212;49.734;8.490;2022-07-04T00:32:47;100439.00;;;18.99;60.17
45467;BME280;31212;49.734;8.490;2022-07-04T00:35:13;100445.28;;;18.95;60.29
45467;BME280;31212;49.734;8.490;2022-07-04T00:37:40;100443.78;;;18.85;60.36
45467;BME280;31212;49.734;8.490;2022-07-04T00:40:07;100459.03;;;18.74;60.86
45467;BME280;31212;49.734;8.490;2022-07-04T00:42:33;100439.84;;;18.70;60.85
45467;BME280;31212;49.734;8.490;2022-07-04T00:45:00;100448.94;;;18.60;60.89
45467;BME280;31212;49.734;8.490;2022-07-04T00:47:26;100459.53;;;18.57;61.14
45467;BME280;31212;49.734;8.490;2022-07-04T00:49:54;100476.22;;;18.56;61.34
45467;BME280;31212;49.734;8.490;2022-07-04T00:52:21;100451.78;;;18.52;60.89
45467;BME280;31212;49.734;8.490;2022-07-04T00:54:48;100459.00;;;18.45;61.40
45467;BME280;31212;49.734;8.490;2022-07-04T00:57:15;100466.94;;;18.44;61.38
45467;BME280;31212;49.734;8.490;2022-07-04T00:59:41;100484.53;;;18.40;61.26
45467;BME280;31212;49.734;8.490;2022-07-04T01:02:08;100486.44;;;18.35;61.65
45467;BME280;31212;49.734;8.490;2022-07-04T01:04:34;100507.75;;;18.24;62.02
45467;BME280;31212;49.734;8.490;2022-07-04T01:07:04;100518.34;;;18.21;62.31
45467;BME280;31212;49.734;8.490;2022-07-04T01:09:31;100535.22;;;18.12;62.80
45467;BME280;31212;49.734;8.490;2022-07-04T01:11:57;100563.53;;;18.01;63.48
45467;BME280;31212;49.734;8.490;2022-07-04T01:14:23;100578.72;;;17.87;64.17
45467;BME280;31212;49.734;8.490;2022-07-04T01:16:50;100585.22;;;17.72;64.52
45467;BME280;31212;49.734;8.490;2022-07-04T01:19:16;100601.91;;;17.69;64.87
45467;BME280;31212;49.734;8.490;2022-07-04T01:21:44;100609.88;;;17.66;65.05
45467;BME280;31212;49.734;8.490;2022-07-04T01:24:11;100626.72;;;17.57;65.97
45467;BME280;31212;49.734;8.490;2022-07-04T01:26:38;100640.84;;;17.50;66.12
45467;BME280;31212;49.734;8.490;2022-07-04T01:29:05;100651.50;;;17.44;66.40
45467;BME280;31212;49.734;8.490;2022-07-04T01:31:31;100673.63;;;17.30;67.37
45467;BME280;31212;49.734;8.490;2022-07-04T01:33:58;100695.63;;;17.23;68.14
45467;BME280;31212;49.734;8.490;2022-07-04T01:36:24;100715.94;;;17.13;69.27
45467;BME280;31212;49.734;8.490;2022-07-04T01:38:52;100726.69;;;17.00;69.58
45467;BME280;31212;49.734;8.490;2022-07-04T01:41:19;100731.22;;;16.88;70.38
45467;BME280;31212;49.734;8.490;2022-07-04T01:43:46;100740.91;;;16.86;70.90
45467;BME280;31212;49.734;8.490;2022-07-04T01:46:12;100728.84;;;16.74;70.93
45467;BME280;31212;49.734;8.490;2022-07-04T01:48:39;100723.75;;;16.68;71.24
45467;BME280;31212;49.734;8.490;2022-07-04T01:51:05;100726.38;;;16.65;71.70
45467;BME280;31212;49.734;8.490;2022-07-04T01:53:35;100730.84;;;16.61;71.66
45467;BME280;31212;49.734;8.490;2022-07-04T01:56:04;100735.44;;;16.47;72.37
45467;BME280;31212;49.734;8.490;2022-07-04T01:58:30;100725.00;;;16.44;72.33
45467;BME280;31212;49.734;8.490;2022-07-04T02:00:57;100736.47;;;16.37;73.19
45467;BME280;31212;49.734;8.490;2022-07-04T02:03:41;100734.75;;;16.34;73.12
45467;BME280;31212;49.734;8.490;2022-07-04T02:06:07;100713.75;;;16.36;72.72
45467;BME280;31212;49.734;8.490;2022-07-04T02:08:34;100711.44;;;16.17;73.10
45467;BME280;31212;49.734;8.490;2022-07-04T02:11:16;100733.50;;;16.02;74.33
45467;BME280;31212;49.734;8.490;2022-07-04T02:13:42;100739.72;;;15.93;75.07
45467;BME280;31212;49.734;8.490;2022-07-04T02:16:08;100745.94;;;15.85;75.68
45467;BME280;31212;49.734;8.490;2022-07-04T02:18:34;100747.72;;;15.81;76.04
45467;BME280;31212;49.734;8.490;2022-07-04T02:21:01;100745.13;;;15.81;76.13
45467;BME280;31212;49.734;8.490;2022-07-04T02:23:27;100735.50;;;15.78;75.57
45467;BME280;31212;49.734;8.490;2022-07-04T02:25:54;100737.25;;;15.79;76.03
45467;BME280;31212;49.734;8.490;2022-07-04T02:28:22;100746.06;;;15.71;76.36
45467;BME280;31212;49.734;8.490;2022-07-04T02:30:48;100761.84;;;15.66;77.18
45467;BME280;31212;49.734;8.490;2022-07-04T02:33:15;100746.06;;;15.72;76.85
45467;BME280;31212;49.734;8.490;2022-07-04T02:35:41;100740.06;;;15.66;76.25
45467;BME280;31212;49.734;8.490;2022-07-04T02:38:08;100734.88;;;15.61;76.52
45467;BME280;31212;49.734;8.490;2022-07-04T02:40:34;100750.59;;;15.59;77.32
45467;BME280;31212;49.734;8.490;2022-07-04T02:43:01;100754.97;;;15.57;77.24
45467;BME280;31212;49.734;8.490;2022-07-04T02:45:28;100741.91;;;15.56;77.31
45467;BME280;31212;49.734;8.490;2022-07-04T02:47:55;100755.00;;;15.54;77.57
45467;BME280;31212;49.734;8.490;2022-07-04T02:50:21;100750.69;;;15.50;77.70
45467;BME280;31212;49.734;8.490;2022-07-04T02:52:48;100756.88;;;15.44;78.04
45467;BME280;31212;49.734;8.490;2022-07-04T02:55:14;100761.28;;;15.39;78.28
45467;BME280;31212;49.734;8.490;2022-07-04T02:57:41;100758.63;;;15.45;78.21
45467;BME280;31212;49.734;8.490;2022-07-04T03:00:08;100763.06;;;15.39;78.43
45467;BME280;31212;49.734;8.490;2022-07-04T03:02:36;100762.16;;;15.41;78.12
45467;BME280;31212;49.734;8.490;2022-07-04T03:05:04;100758.63;;;15.42;78.18
45467;BME280;31212;49.734;8.490;2022-07-04T03:07:31;100773.53;;;15.34;78.60
45467;BME280;31212;49.734;8.490;2022-07-04T03:09:57;100782.28;;;15.35;78.64
45467;BME280;31212;49.734;8.490;2022-07-04T03:12:23;100791.03;;;15.30;79.40
45467;BME280;31212;49.734;8.490;2022-07-04T03:14:50;100798.88;;;15.30;79.62
45467;BME280;31212;49.734;8.490;2022-07-04T03:17:18;100788.38;;;15.34;79.32
45467;BME280;31212;49.734;8.490;2022-07-04T03:19:46;100793.56;;;15.37;79.47
45467;BME280;31212;49.734;8.490;2022-07-04T03:22:13;100788.41;;;15.29;79.42
45467;BME280;31212;49.734;8.490;2022-07-04T03:24:39;100802.38;;;15.26;79.75
45467;BME280;31212;49.734;8.490;2022-07-04T03:27:06;100805.09;;;15.20;80.04
45467;BME280;31212;49.734;8.490;2022-07-04T03:29:32;100815.53;;;15.22;79.92
45467;BME280;31212;49.734;8.490;2022-07-04T03:31:59;100808.59;;;15.16;79.60
45467;BME280;31212;49.734;8.490;2022-07-04T03:34:25;100815.50;;;15.23;79.94
45467;BME280;31212;49.734;8.490;2022-07-04T03:36:53;100830.44;;;15.13;80.30
45467;BME280;31212;49.734;8.490;2022-07-04T03:39:20;100839.16;;;15.11;80.66
45467;BME280;31212;49.734;8.490;2022-07-04T03:41:47;100836.63;;;15.02;80.75
45467;BME280;31212;49.734;8.490;2022-07-04T03:44:13;100850.59;;;14.97;81.20
45467;BME280;31212;49.734;8.490;2022-07-04T03:46:40;100853.25;;;14.93;81.87
45467;BME280;31212;49.734;8.490;2022-07-04T03:49:07;100848.88;;;14.93;82.18
45467;BME280;31212;49.734;8.490;2022-07-04T03:51:33;100855.88;;;14.93;82.35
45467;BME280;31212;49.734;8.490;2022-07-04T03:54:01;100859.34;;;14.93;82.74
45467;BME280;31212;49.734;8.490;2022-07-04T03:56:28;100857.59;;;14.92;83.04
45467;BME280;31212;49.734;8.490;2022-07-04T03:58:55;100852.34;;;14.94;82.95
45467;BME280;31212;49.734;8.490;2022-07-04T04:01:22;100857.59;;;14.95;83.35
45467;BME280;31212;49.734;8.490;2022-07-04T04:03:48;100862.78;;;15.02;83.21
45467;BME280;31212;49.734;8.490;2022-07-04T04:06:33;100861.88;;;15.04;83.56
45467;BME280;31212;49.734;8.490;2022-07-04T04:09:00;100852.28;;;15.08;83.39
45467;BME280;31212;49.734;8.490;2022-07-04T04:11:27;100843.53;;;15.12;83.13
45467;BME280;31212;49.734;8.490;2022-07-04T04:13:55;100844.34;;;15.16;82.70
45467;BME280;31212;49.734;8.490;2022-07-04T04:16:22;100846.94;;;15.19;82.33
45467;BME280;31212;49.734;8.490;2022-07-04T04:18:49;100840.78;;;15.26;82.48
45467;BME280;31212;49.734;8.490;2022-07-04T04:21:15;100835.50;;;15.29;82.03
45467;BME280;31212;49.734;8.490;2022-07-04T04:23:42;100830.22;;;15.35;81.96
45467;BME280;31212;49.734;8.490;2022-07-04T04:26:08;100845.00;;;15.39;82.38
45467;BME280;31212;49.734;8.490;2022-07-04T04:28:36;100847.56;;;15.45;82.21
45467;BME280;31212;49.734;8.490;2022-07-04T04:31:02;100854.50;;;15.51;82.44
45467;BME280;31212;49.734;8.490;2022-07-04T04:33:29;100862.28;;;15.59;82.43
45467;BME280;31212;49.734;8.490;2022-07-04T04:35:55;100856.94;;;15.67;81.69
45467;BME280;31212;49.734;8.490;2022-07-04T04:38:22;100840.28;;;15.74;81.53
45467;BME280;31212;49.734;8.490;2022-07-04T04:40:48;100825.41;;;15.82;80.32
45467;BME280;31212;49.734;8.490;2022-07-04T04:43:15;100807.75;;;15.96;79.54
45467;BME280;31212;49.734;8.490;2022-07-04T04:45:43;100809.34;;;16.08;78.81
45467;BME280;31212;49.734;8.490;2022-07-04T04:48:09;100779.56;;;16.17;78.25
45467;BME280;31212;49.734;8.490;2022-07-04T04:50:36;100757.50;;;16.32;77.01
45467;BME280;31212;49.734;8.490;2022-07-04T04:53:02;100741.69;;;16.37;76.33
45467;BME280;31212;49.734;8.490;2022-07-04T04:55:29;100743.28;;;16.47;76.29
45467;BME280;31212;49.734;8.490;2022-07-04T04:57:55;100723.84;;;16.60;75.32
45467;BME280;31212;49.734;8.490;2022-07-04T05:00:22;100729.81;;;16.70;75.18
45467;BME280;31212;49.734;8.490;2022-07-04T05:02:50;100705.16;;;16.80;74.63
45467;BME280;31212;49.734;8.490;2022-07-04T05:05:16;100703.19;;;16.93;74.04
45467;BME280;31212;49.734;8.490;2022-07-04T05:07:43;100691.72;;;17.01;73.35
45467;BME280;31212;49.734;8.490;2022-07-04T05:10:09;100684.47;;;17.13;73.17
45467;BME280;31212;49.734;8.490;2022-07-04T05:12:36;100671.84;;;17.32;72.01
45467;BME280;31212;49.734;8.490;2022-07-04T05:15:03;100672.63;;;17.36;72.18
45467;BME280;31212;49.734;8.490;2022-07-04T05:17:30;100658.72;;;17.32;71.24
45467;BME280;31212;49.734;8.490;2022-07-04T05:19:58;100674.00;;;17.54;71.61
45467;BME280;31212;49.734;8.490;2022-07-04T05:22:24;100656.31;;;17.64;70.94
45467;BME280;31212;49.734;8.490;2022-07-04T05:24:51;100657.69;;;17.80;70.89
45467;BME280;31212;49.734;8.490;2022-07-04T05:27:17;100653.00;;;17.95;70.14
45467;BME280;31212;49.734;8.490;2022-07-04T05:29:44;100650.28;;;17.99;70.20
45467;BME280;31212;49.734;8.490;2022-07-04T05:32:10;100609.56;;;18.16;68.81
45467;BME280;31212;49.734;8.490;2022-07-04T05:34:37;100598.00;;;18.23;68.31
45467;BME280;31212;49.734;8.490;2022-07-04T05:37:05;100585.56;;;18.30;67.71
45467;BME280;31212;49.734;8.490;2022-07-04T05:39:31;100622.31;;;18.33;68.41
45467;BME280;31212;49.734;8.490;2022-07-04T05:41:58;100606.22;;;18.45;67.76
45467;BME280;31212;49.734;8.490;2022-07-04T05:44:24;100593.75;;;18.52;67.43
45467;BME280;31212;49.734;8.490;2022-07-04T05:46:51;100584.50;;;18.70;66.90
45467;BME280;31212;49.734;8.490;2022-07-04T05:49:17;100584.28;;;18.78;66.54
45467;BME280;31212;49.734;8.490;2022-07-04T05:51:44;100578.59;;;18.95;66.21
45467;BME280;31212;49.734;8.490;2022-07-04T05:54:12;100559.88;;;19.04;65.50
45467;BME280;31212;49.734;8.490;2022-07-04T05:56:38;100558.19;;;19.02;65.33
45467;BME280;31212;49.734;8.490;2022-07-04T05:59:07;100570.28;;;19.09;65.77
45467;BME280;31212;49.734;8.490;2022-07-04T06:01:34;100562.06;;;19.20;65.32
45467;BME280;31212;49.734;8.490;2022-07-04T06:04:00;100571.22;;;19.36;65.06
45467;BME280;31212;49.734;8.490;2022-07-04T06:06:27;100530.25;;;19.56;63.99
45467;BME280;31212;49.734;8.490;2022-07-04T06:08:53;100485.47;;;19.56;63.00
45467;BME280;31212;49.734;8.490;2022-07-04T06:11:21;100472.78;;;19.67;62.30
45467;BME280;31212;49.734;8.490;2022-07-04T06:13:48;100482.25;;;19.73;62.49
45467;BME280;31212;49.734;8.490;2022-07-04T06:16:15;100496.25;;;19.75;62.30
45467;BME280;31212;49.734;8.490;2022-07-04T06:18:42;100495.09;;;19.83;62.43
45467;BME280;31212;49.734;8.490;2022-07-04T06:21:09;100499.16;;;19.94;62.17
45467;BME280;31212;49.734;8.490;2022-07-04T06:23:35;100480.31;;;20.05;61.71
45467;BME280;31212;49.734;8.490;2022-07-04T06:26:02;100498.41;;;20.39;61.81
45467;BME280;31212;49.734;8.490;2022-07-04T06:28:30;100478.19;;;20.63;60.86
45467;BME280;31212;49.734;8.490;2022-07-04T06:30:56;100430.53;;;20.70;59.93
45467;BME280;31212;49.734;8.490;2022-07-04T06:33:23;100403.91;;;20.76;59.07
45467;BME280;31212;49.734;8.490;2022-07-04T06:35:50;100385.13;;;21.06;58.57
45467;BME280;31212;49.734;8.490;2022-07-04T06:38:21;100365.63;;;21.30;57.50
45467;BME280;31212;49.734;8.490;2022-07-04T06:40:49;100346.34;;;21.49;56.92
45467;BME280;31212;49.734;8.490;2022-07-04T06:43:16;100280.84;;;21.16;56.20
45467;BME280;31212;49.734;8.490;2022-07-04T06:45:44;100292.59;;;21.50;55.89
45467;BME280;31212;49.734;8.490;2022-07-04T06:48:10;100364.03;;;21.88;56.72
45467;BME280;31212;49.734;8.490;2022-07-04T06:50:37;100328.38;;;21.97;56.05
45467;BME280;31212;49.734;8.490;2022-07-04T06:53:06;100363.91;;;22.29;56.30
45467;BME280;31212;49.734;8.490;2022-07-04T06:55:32;100239.84;;;22.25;54.25
45467;BME280;31212;49.734;8.490;2022-07-04T06:57:59;100219.06;;;22.17;53.25
45467;BME280;31212;49.734;8.490;2022-07-04T07:00:25;100184.47;;;22.41;52.19
45467;BME280;31212;49.734;8.490;2022-07-04T07:02:57;100203.00;;;22.58;52.41
45467;BME280;31212;49.734;8.490;2022-07-04T07:05:24;100234.28;;;23.20;52.32
45467;BME280;31212;49.734;8.490;2022-07-04T07:07:51;100170.84;;;23.50;50.84
45467;BME280;31212;49.734;8.490;2022-07-04T07:10:17;100170.59;;;23.71;50.50
45467;BME280;31212;49.734;8.490;2022-07-04T07:12:44;100078.16;;;24.27;47.78
45467;BME280;31212;49.734;8.490;2022-07-04T07:15:11;100109.44;;;25.39;47.23
45467;BME280;31212;49.734;8.490;2022-07-04T07:17:38;100000.94;;;25.86;44.87
45467;BME280;31212;49.734;8.490;2022-07-04T07:20:07;99983.88;;;27.05;42.90
45467;BME280;31212;49.734;8.490;2022-07-04T07:22:34;99919.22;;;27.62;40.62
45467;BME280;31212;49.734;8.490;2022-07-04T07:25:00;99940.34;;;28.35;39.93
45467;BME280;31212;49.734;8.490;2022-07-04T07:27:27;99846.81;;;28.80;38.07
45467;BME280;31212;49.734;8.490;2022-07-04T07:29:54;99757.66;;;28.49;37.15
45467;BME280;31212;49.734;8.490;2022-07-04T07:32:20;99822.00;;;28.90;37.25
45467;BME280;31212;49.734;8.490;2022-07-04T07:34:47;99898.53;;;30.39;36.71
45467;BME280;31212;49.734;8.490;2022-07-04T07:37:14;99788.34;;;29.72;35.88
45467;BME280;31212;49.734;8.490;2022-07-04T07:39:42;99788.13;;;31.52;33.87
45467;BME280;31212;49.734;8.490;2022-07-04T07:42:09;99779.91;;;29.24;35.49
45467;BME280;31212;49.734;8.490;2022-07-04T07:44:35;99909.78;;;30.32;36.56
45467;BME280;31212;49.734;8.490;2022-07-04T07:47:02;99882.63;;;31.17;35.36
45467;BME280;31212;49.734;8.490;2022-07-04T07:49:29;99712.84;;;32.19;32.33
45467;BME280;31212;49.734;8.490;2022-07-04T07:51:56;99726.22;;;31.74;32.06
45467;BME280;31212;49.734;8.490;2022-07-04T07:54:23;99757.25;;;31.39;32.50
45467;BME280;31212;49.734;8.490;2022-07-04T07:56:50;99728.25;;;31.62;32.46
45467;BME280;31212;49.734;8.490;2022-07-04T07:59:16;99778.47;;;32.89;31.59
45467;BME280;31212;49.734;8.490;2022-07-04T08:01:43;99721.78;;;32.82;31.22
45467;BME280;31212;49.734;8.490;2022-07-04T08:04:10;99681.25;;;31.85;31.38
45467;BME280;31212;49.734;8.490;2022-07-04T08:06:54;99836.66;;;31.69;33.45
45467;BME280;31212;49.734;8.490;2022-07-04T08:09:20;99831.25;;;32.90;32.36
45467;BME280;31212;49.734;8.490;2022-07-04T08:11:48;99779.66;;;34.51;30.51
45467;BME280;31212;49.734;8.490;2022-07-04T08:14:15;99714.06;;;34.17;29.67
45467;BME280;31212;49.734;8.490;2022-07-04T08:16:41;99749.09;;;33.14;30.46
45467;BME280;31212;49.734;8.490;2022-07-04T08:19:08;99677.56;;;33.29;29.44
45467;BME280;31212;49.734;8.490;2022-07-04T08:21:34;99709.69;;;34.08;28.91
45467;BME280;31212;49.734;8.490;2022-07-04T08:24:01;99675.13;;;33.87;28.97
45467;BME280;31212;49.734;8.490;2022-07-04T08:26:27;99744.81;;;33.98;29.78
45467;BME280;31212;49.734;8.490;2022-07-04T08:28:55;99691.31;;;33.61;29.23
45467;BME280;31212;49.734;8.490;2022-07-04T08:31:23;99730.06;;;34.19;28.99
45467;BME280;31212;49.734;8.490;2022-07-04T08:33:49;99730.50;;;32.76;30.47
45467;BME280;31212;49.734;8.490;2022-07-04T08:36:16;99743.56;;;34.27;29.08
45467;BME280;31212;49.734;8.490;2022-07-04T08:38:42;99666.38;;;33.42;28.93
45467;BME280;31212;49.734;8.490;2022-07-04T08:41:09;99774.09;;;32.88;30.98
45467;BME280;31212;49.734;8.490;2022-07-04T08:43:36;99731.31;;;32.95;30.22
45467;BME280;31212;49.734;8.490;2022-07-04T08:46:05;99723.31;;;32.67;30.16
45467;BME280;31212;49.734;8.490;2022-07-04T08:48:32;99818.13;;;32.87;31.25
45467;BME280;31212;49.734;8.490;2022-07-04T08:51:04;99765.81;;;33.52;29.83
45467;BME280;31212;49.734;8.490;2022-07-04T08:53:38;99758.94;;;33.84;29.29
45467;BME280;31212;49.734;8.490;2022-07-04T08:56:06;99688.09;;;32.52;29.83
45467;BME280;31212;49.734;8.490;2022-07-04T08:58:52;99803.66;;;33.06;30.73
45467;BME280;31212;49.734;8.490;2022-07-04T09:01:21;99746.19;;;33.33;29.90
45467;BME280;31212;49.734;8.490;2022-07-04T09:03:49;99736.19;;;32.99;29.99
45467;BME280;31212;49.734;8.490;2022-07-04T09:06:16;99791.44;;;32.76;30.69
45467;BME280;31212;49.734;8.490;2022-07-04T09:08:43;99778.09;;;33.28;30.32
45467;BME280;31212;49.734;8.490;2022-07-04T09:11:09;99716.63;;;33.76;28.93
45467;BME280;31212;49.734;8.490;2022-07-04T09:13:37;99744.97;;;33.89;29.26
45467;BME280;31212;49.734;8.490;2022-07-04T09:16:04;99810.50;;;34.06;29.59
45467;BME280;31212;49.734;8.490;2022-07-04T09:18:34;99751.91;;;33.99;29.39
45467;BME280;31212;49.734;8.490;2022-07-04T09:21:03;99795.91;;;33.47;30.23
45467;BME280;31212;49.734;8.490;2022-07-04T09:23:31;99785.94;;;33.40;30.13
45467;BME280;31212;49.734;8.490;2022-07-04T09:26:12;99790.28;;;33.67;30.12
45467;BME280;31212;49.734;8.490;2022-07-04T09:28:41;99682.06;;;33.55;28.50
45467;BME280;31212;49.734;8.490;2022-07-04T09:31:16;99714.38;;;34.14;28.49
45467;BME280;31212;49.734;8.490;2022-07-04T09:33:50;99751.50;;;33.78;29.44
45467;BME280;31212;49.734;8.490;2022-07-04T09:36:18;99798.94;;;33.79;29.99
45467;BME280;31212;49.734;8.490;2022-07-04T09:38:46;99720.13;;;33.68;29.07
45467;BME280;31212;49.734;8.490;2022-07-04T09:41:29;99759.94;;;33.83;29.37
45467;BME280;31212;49.734;8.490;2022-07-04T09:44:01;99771.69;;;33.82;29.32
45467;BME280;31212;49.734;8.490;2022-07-04T09:46:29;99778.97;;;33.90;29.42
45467;BME280;31212;49.734;8.490;2022-07-04T09:48:57;99719.88;;;34.47;28.04
45467;BME280;31212;49.734;8.490;2022-07-04T09:51:39;99648.44;;;34.60;27.24
45467;BME280;31212;49.734;8.490;2022-07-04T09:54:12;99657.34;;;34.19;27.67
45467;BME280;31212;49.734;8.490;2022-07-04T09:56:39;99642.84;;;34.28;27.31
45467;BME280;31212;49.734;8.490;2022-07-04T09:59:06;99666.47;;;34.34;27.62
45467;BME280;31212;49.734;8.490;2022-07-04T10:01:33;99776.66;;;35.03;28.08
45467;BME280;31212;49.734;8.490;2022-07-04T10:04:01;99670.97;;;34.75;27.40
45467;BME280;31212;49.734;8.490;2022-07-04T10:06:31;99666.28;;;34.85;27.34
45467;BME280;31212;49.734;8.490;2022-07-04T10:09:06;99656.84;;;35.46;26.58
45467;BME280;31212;49.734;8.490;2022-07-04T10:11:33;99602.28;;;34.46;26.80
45467;BME280;31212;49.734;8.490;2022-07-04T10:14:00;99788.34;;;35.68;28.34
45467;BME280;31212;49.734;8.490;2022-07-04T10:16:27;99622.38;;;35.87;25.80
45467;BME280;31212;49.734;8.490;2022-07-04T10:18:54;99609.50;;;35.66;26.04
45467;BME280;31212;49.734;8.490;2022-07-04T10:21:23;99569.81;;;35.67;25.27
45467;BME280;31212;49.734;8.490;2022-07-04T10:23:50;99637.91;;;36.09;25.17
45467;BME280;31212;49.734;8.490;2022-07-04T10:26:18;99632.31;;;36.57;24.89
45467;BME280;31212;49.734;8.490;2022-07-04T10:28:46;99688.81;;;36.51;26.01
45467;BME280;31212;49.734;8.490;2022-07-04T10:31:15;99509.44;;;32.30;27.23
45467;BME280;31212;49.734;8.490;2022-07-04T10:33:42;99619.88;;;34.98;26.50
45467;BME280;31212;49.734;8.490;2022-07-04T10:36:14;99605.88;;;35.03;25.95
45467;BME280;31212;49.734;8.490;2022-07-04T10:38:48;99649.91;;;35.51;26.51
45467;BME280;31212;49.734;8.490;2022-07-04T10:41:16;99697.06;;;36.27;25.96
45467;BME280;31212;49.734;8.490;2022-07-04T10:43:57;99630.72;;;36.24;25.69
45467;BME280;31212;49.734;8.490;2022-07-04T10:46:45;99667.25;;;36.43;25.69
45467;BME280;31212;49.734;8.490;2022-07-04T10:49:20;99574.28;;;36.82;24.20
45467;BME280;31212;49.734;8.490;2022-07-04T10:51:48;99599.31;;;36.61;25.15
45467;BME280;31212;49.734;8.490;2022-07-04T10:54:18;99707.13;;;37.02;25.82
45467;BME280;31212;49.734;8.490;2022-07-04T10:56:55;99659.28;;;36.80;25.60
45467;BME280;31212;49.734;8.490;2022-07-04T10:59:24;99586.97;;;37.48;23.83
45467;BME280;31212;49.734;8.490;2022-07-04T11:02:00;99535.22;;;37.22;23.90
45467;BME280;31212;49.734;8.490;2022-07-04T11:04:48;99540.03;;;37.26;23.48
45467;BME280;31212;49.734;8.490;2022-07-04T11:07:15;99590.00;;;37.09;24.28
45467;BME280;31212;49.734;8.490;2022-07-04T11:09:43;99619.81;;;36.56;25.05
45467;BME280;31212;49.734;8.490;2022-07-04T11:12:11;99560.63;;;36.46;24.67
45467;BME280;31212;49.734;8.490;2022-07-04T11:14:41;99598.81;;;35.73;25.43
45467;BME280;31212;49.734;8.490;2022-07-04T11:17:10;99621.91;;;35.44;26.56
45467;BME280;31212;49.734;8.490;2022-07-04T11:19:37;99650.13;;;35.25;26.71
45467;BME280;31212;49.734;8.490;2022-07-04T11:22:03;99646.69;;;35.08;26.78
45467;BME280;31212;49.734;8.490;2022-07-04T11:24:32;99771.25;;;35.28;28.19
45467;BME280;31212;49.734;8.490;2022-07-04T11:27:01;99709.53;;;36.59;26.21
45467;BME280;31212;49.734;8.490;2022-07-04T11:29:28;99522.19;;;35.97;23.99
45467;BME280;31212;49.734;8.490;2022-07-04T11:31:55;99649.78;;;33.20;28.26
45467;BME280;31212;49.734;8.490;2022-07-04T11:34:23;99747.44;;;34.25;28.35
45467;BME280;31212;49.734;8.490;2022-07-04T11:36:51;99758.00;;;34.18;28.70
45467;BME280;31212;49.734;8.490;2022-07-04T11:39:19;99680.63;;;34.45;27.48
45467;BME280;31212;49.734;8.490;2022-07-04T11:41:48;99659.22;;;34.51;26.77
45467;BME280;31212;49.734;8.490;2022-07-04T11:44:35;99711.59;;;34.41;27.70
45467;BME280;31212;49.734;8.490;2022-07-04T11:47:21;99741.50;;;33.70;29.09
45467;BME280;31212;49.734;8.490;2022-07-04T11:49:49;99753.41;;;33.94;28.64
45467;BME280;31212;49.734;8.490;2022-07-04T11:52:19;99711.41;;;34.26;28.10
45467;BME280;31212;49.734;8.490;2022-07-04T11:54:47;99722.09;;;33.93;28.50
45467;BME280;31212;49.734;8.490;2022-07-04T11:57:19;99558.34;;;34.13;26.07
45467;BME280;31212;49.734;8.490;2022-07-04T11:59:58;99598.06;;;34.19;26.58
45467;BME280;31212;49.734;8.490;2022-07-04T12:02:26;99565.91;;;34.17;25.79
45467;BME280;31212;49.734;8.490;2022-07-04T12:04:53;99577.63;;;33.59;26.79
45467;BME280;31212;49.734;8.490;2022-07-04T12:07:22;99719.38;;;33.50;28.98
45467;BME280;31212;49.734;8.490;2022-07-04T12:09:49;99596.72;;;33.39;27.30
45467;BME280;31212;49.734;8.490;2022-07-04T12:12:16;99589.19;;;33.43;27.14
45467;BME280;31212;49.734;8.490;2022-07-04T12:14:58;99576.19;;;32.69;27.58
45467;BME280;31212;49.734;8.490;2022-07-04T12:17:30;99572.91;;;32.49;27.92
45467;BME280;31212;49.734;8.490;2022-07-04T12:19:58;99622.84;;;31.69;29.12
45467;BME280;31212;49.734;8.490;2022-07-04T12:22:27;99655.78;;;32.08;29.81
45467;BME280;31212;49.734;8.490;2022-07-04T12:24:55;99832.72;;;32.39;31.43
45467;BME280;31212;49.734;8.490;2022-07-04T12:27:24;99639.22;;;32.30;28.82
45467;BME280;31212;49.734;8.490;2022-07-04T12:29:51;99668.88;;;32.20;29.12
45467;BME280;31212;49.734;8.490;2022-07-04T12:32:20;99810.03;;;31.95;31.68
45467;BME280;31212;49.734;8.490;2022-07-04T12:34:47;99798.84;;;32.28;31.33
45467;BME280;31212;49.734;8.490;2022-07-04T12:37:15;99693.47;;;32.16;29.60
45467;BME280;31212;49.734;8.490;2022-07-04T12:39:43;99727.47;;;31.97;30.64
45467;BME280;31212;49.734;8.490;2022-07-04T12:42:11;99718.84;;;32.03;30.58
45467;BME280;31212;49.734;8.490;2022-07-04T12:44:39;99611.47;;;31.58;29.34
45467;BME280;31212;49.734;8.490;2022-07-04T12:47:07;99578.69;;;30.61;29.62
45467;BME280;31212;49.734;8.490;2022-07-04T12:49:35;99659.75;;;30.14;30.75
45467;BME280;31212;49.734;8.490;2022-07-04T12:52:07;99625.78;;;30.44;30.06
45467;BME280;31212;49.734;8.490;2022-07-04T12:54:35;99580.34;;;30.72;29.23
45467;BME280;31212;49.734;8.490;2022-07-04T12:57:04;99545.03;;;30.39;29.16
45467;BME280;31212;49.734;8.490;2022-07-04T12:59:31;99663.00;;;30.76;30.05